Etusivu
METAR-TAF:

METAR-TAF

Lentoasemat :

Retalhuleu, Guatemala

Leveyspiiri: 14-32N, Pituuspiiri: 091-40W, korkeus merenpinnasta: 239 m

Tämänhetkinen sää

Tämä raportti tehtiin 13 minuuttia sitten, kello 16.00 UTC
tyyntä
Lämpötila 30°C
Kosteus 66%
Ilmanpaine 1016 hPa
Näkyvyys 10 km tai enemmän
Muutamia pilviä 2000 ft:n korkeudessa
Hajanaisia pilviä 20000 ft:n korkeudessa

METAR: MGRT 251600Z 00000KT 9999 FEW020 SCT200 30/23 Q1016 A3000 VOL,SANTA MARIA Y SANTIAGUITO EN ACTIVIDAD

Aika: 10:13 (16:13 UTC)


TAF: puuttuu

Säähavainnot ja -ennusteet yli 4000 lentoasemalta (METAR- ja TAF-raportit).

Käytössä olevat sääasemat on merkitty karttaan keltaisilla ja punaisilla pisteillä.

Aseta hiiri pisteen päälle nähdäksesi sääaseman nimen.

Klikkaa sitten nähdäksesi säähavainnot ja -ennusteet.

Kartan vaihtaminen: klikkaa mustalla rastilla varustettuja vihreitä pisteitä, niin voit zoomata sisään; viivalla varustettua vihreää pistettä, niin voit zoomata ulos tai vihreitä nuolia, niin pääset viereisille kartoille.


METAR-TAF: